Arnold Palmer Regional Airport
KLBE : now visible

Airfield :











YOU CAN JOIN US ON...

 
LOGIN :

Register | Disclaimer

   EN    FR    IT 

 









Legend :    VFR   Marginal VFR   IFR   Intensive IFR   Very Intensive IFR
Visi :
Ceiling :
>= 8 km
>= 3000ft
5 to 8 km
1000 to 3000 ft
1500m to 5 km
500 to 1000 ft
800 to 1500m
200 to 500 ft
< 800m
< 200 ft
Symbols :   Thunderstorms  Fog  Heavy snow  Heavy precipitations  Wind > 20 kt






- Airport Elevation : 1199 ft
- IATA code : LBE


KLBE - Arnold Palmer Regional

CURRENT METAR :
  • 080815Z AUTO 32006KT 10SM FEW011 BKN017 OVC030 08/07 A3030 RMK AO2

EXPIRED METARs :
  • 080735Z AUTO 31005KT 10SM OVC029 09/08 A3030 RMK AO2
  • 080715Z AUTO 31004KT 10SM OVC027 09/08 A3029 RMK AO2
  • 080655Z AUTO 30005KT 10SM OVC026 09/08 A3030 RMK AO2
  • 080635Z AUTO 30006KT 10SM OVC028 09/08 A3029 RMK AO2
  • 080615Z AUTO 28006KT 10SM OVC029 09/08 A3029 RMK AO2
  • 080555Z AUTO 28005KT 10SM OVC030 09/08 A3028 RMK AO2
  • 080535Z AUTO 29004KT 10SM OVC030 09/08 A3028 RMK AO2

TAF KLBE
Valid from the 08 at 08:00 until the 09 at 06:00 UTC


080804Z 0808/0906 31005KT P6SM OVC025
FM080900 32005KT P6SM OVC010
FM081400 34005KT P6SM OVC020
FM082300 01005KT P6SM BKN035
KZOB FIR / North America



MET'MAP, your aeronautical weather chart ! - Copyright ORBIFLY December 2007 - Disclaimer

ORBIFLY MET'MAP TEAM :

Programming & Development : Alexandra Zaïnal
Original concept : Baudouin d'Aumeries
Technical & hardware support : Manuel Goepfert
Assistance : Marc-Olivier Méhu




SOURCES & CREDITS :

   NOAA       Earth
Advisory